Time;durP1;ratioP1;P1;durP2;ratioP2;P2;SDS_P1;SDS_P2;PMS_P1;PMS_P2;Temp;Humidity;BMP_temperature;BMP_pressure;BME280_temperature;BME280_humidity;BME280_pressure;Samples;Min_cycle;Max_cycle;Signal;HPM_P1;HPM_P2
2021/03/09 00:00:17;;;;;;;25.25;11.35;;;4.80;67.40;;;;;;5031036;28;20094;-75
2021/03/09 00:02:44;;;;;;;27.15;11.10;;;4.50;67.20;;;;;;5030631;28;20128;-76
2021/03/09 00:05:12;;;;;;;21.95;11.40;;;4.30;67.50;;;;;;5033274;28;20116;-77
2021/03/09 00:07:41;;;;;;;25.27;11.57;;;4.40;67.60;;;;;;5031596;28;20072;-77
2021/03/09 00:10:08;;;;;;;20.92;10.05;;;4.40;68.00;;;;;;5026191;28;20265;-75
2021/03/09 00:12:34;;;;;;;25.52;10.63;;;4.40;68.20;;;;;;5034032;28;20142;-74
2021/03/09 00:15:01;;;;;;;24.20;11.05;;;4.50;68.50;;;;;;5032403;28;20139;-76
2021/03/09 00:17:31;;;;;;;22.42;11.13;;;4.50;68.50;;;;;;5031006;28;20061;-75
2021/03/09 00:19:58;;;;;;;21.40;10.93;;;4.50;70.20;;;;;;5030835;28;20518;-76
2021/03/09 00:22:25;;;;;;;22.80;11.40;;;4.30;69.80;;;;;;5035257;28;20154;-77
2021/03/09 00:24:51;;;;;;;24.85;10.75;;;4.20;70.00;;;;;;5032161;28;20493;-78
2021/03/09 00:27:18;;;;;;;23.65;11.63;;;4.10;70.50;;;;;;5035871;28;20661;-76
2021/03/09 00:29:45;;;;;;;22.85;10.38;;;4.10;70.60;;;;;;5033941;28;20080;-77
2021/03/09 00:32:13;;;;;;;26.92;11.07;;;4.20;70.70;;;;;;5031634;28;20128;-76
2021/03/09 00:34:40;;;;;;;22.48;11.02;;;4.30;70.30;;;;;;5032267;28;20118;-76
2021/03/09 00:37:06;;;;;;;20.80;10.52;;;4.50;69.60;;;;;;5032684;28;20547;-75
2021/03/09 00:39:34;;;;;;;20.30;11.02;;;4.30;69.60;;;;;;5032564;28;20080;-75
2021/03/09 00:42:00;;;;;;;25.45;10.88;;;4.40;69.50;;;;;;5035084;28;20053;-75
2021/03/09 00:44:28;;;;;;;25.48;12.55;;;4.50;69.60;;;;;;5029756;28;20132;-76
2021/03/09 00:46:54;;;;;;;22.38;10.82;;;4.60;69.50;;;;;;5031887;28;20137;-76
2021/03/09 00:49:21;;;;;;;28.77;12.57;;;4.30;69.90;;;;;;5022071;28;20467;-75
2021/03/09 00:51:47;;;;;;;27.00;12.63;;;4.20;70.30;;;;;;5035252;28;20045;-77
2021/03/09 00:54:13;;;;;;;21.98;11.07;;;4.30;70.70;;;;;;5033718;28;20114;-76
2021/03/09 00:56:40;;;;;;;29.10;12.30;;;4.20;70.50;;;;;;5028441;28;20179;-76
2021/03/09 00:59:06;;;;;;;25.35;12.20;;;4.50;70.90;;;;;;5034701;28;20496;-76
2021/03/09 01:01:33;;;;;;;25.17;12.35;;;4.20;70.90;;;;;;5028965;28;20172;-75
2021/03/09 01:03:59;;;;;;;26.30;12.18;;;4.10;71.00;;;;;;5034615;28;20099;-75
2021/03/09 01:06:27;;;;;;;24.27;11.88;;;4.10;71.00;;;;;;5032287;28;20045;-74
2021/03/09 01:08:53;;;;;;;22.98;11.75;;;4.10;71.30;;;;;;5033282;28;20480;-75
2021/03/09 01:11:19;;;;;;;20.02;10.90;;;4.30;71.20;;;;;;5052369;28;20453;-76
2021/03/09 01:13:46;;;;;;;28.02;12.07;;;4.40;71.40;;;;;;5020899;28;20057;-76
2021/03/09 01:16:12;;;;;;;23.38;12.07;;;4.40;71.10;;;;;;5018951;28;20084;-78
2021/03/09 01:18:39;;;;;;;24.13;11.52;;;4.30;70.90;;;;;;5018535;28;20508;-79
2021/03/09 01:21:05;;;;;;;24.20;11.73;;;4.20;70.60;;;;;;5022196;28;20144;-79
2021/03/09 01:23:33;;;;;;;28.15;12.30;;;4.20;70.90;;;;;;5016881;28;20119;-76
2021/03/09 01:26:01;;;;;;;25.40;12.20;;;4.10;70.80;;;;;;5025185;28;20084;-75
2021/03/09 01:28:28;;;;;;;26.40;12.30;;;4.10;70.50;;;;;;5018146;28;20061;-77
2021/03/09 01:30:54;;;;;;;22.63;11.60;;;4.20;70.80;;;;;;5022427;28;20132;-78
2021/03/09 01:33:23;;;;;;;23.55;11.52;;;4.20;70.70;;;;;;5023215;28;20068;-77
2021/03/09 01:35:49;;;;;;;24.40;11.35;;;4.30;70.30;;;;;;5013291;28;20128;-77
2021/03/09 01:38:16;;;;;;;24.27;11.27;;;4.10;70.40;;;;;;5026286;28;20053;-78
2021/03/09 01:40:42;;;;;;;25.00;11.90;;;4.20;70.90;;;;;;5017967;28;20072;-76
2021/03/09 01:43:08;;;;;;;23.15;11.05;;;4.00;70.60;;;;;;5026875;28;20449;-77
2021/03/09 01:45:35;;;;;;;25.13;10.77;;;4.00;70.40;;;;;;5022116;28;20088;-76
2021/03/09 01:48:04;;;;;;;23.77;10.93;;;4.10;70.40;;;;;;5022676;28;20107;-76
2021/03/09 01:50:34;;;;;;;24.25;11.18;;;4.10;70.10;;;;;;5028591;28;20057;-77
2021/03/09 01:53:06;;;;;;;21.05;10.35;;;4.10;69.80;;;;;;5022291;28;20515;-77
2021/03/09 01:55:34;;;;;;;22.38;10.82;;;4.10;70.30;;;;;;5025975;28;20447;-79
2021/03/09 01:58:07;;;;;;;25.30;11.13;;;4.10;70.20;;;;;;5028880;28;20068;-77
2021/03/09 02:00:34;;;;;;;27.15;11.20;;;4.10;70.40;;;;;;5029503;28;20539;-76
2021/03/09 02:03:00;;;;;;;22.85;12.15;;;4.20;70.00;;;;;;5028549;28;20080;-77
2021/03/09 02:05:27;;;;;;;24.10;10.73;;;4.30;70.00;;;;;;5029316;28;20051;-75
2021/03/09 02:07:53;;;;;;;20.15;11.27;;;4.20;70.90;;;;;;5029266;28;20119;-78
2021/03/09 02:10:21;;;;;;;25.70;12.52;;;3.90;70.90;;;;;;5024052;28;20050;-78
2021/03/09 02:13:16;;;;;;;26.77;12.52;;;3.80;71.30;;;;;;5023759;28;20046;-77
2021/03/09 02:16:04;;;;;;;32.72;12.73;;;4.00;71.30;;;;;;5020030;28;20372;-78
2021/03/09 02:18:57;;;;;;;25.25;12.23;;;4.10;71.60;;;;;;5020894;28;20130;-78
2021/03/09 02:21:42;;;;;;;28.05;11.95;;;3.70;71.80;;;;;;5026296;28;20049;-77
2021/03/09 02:24:53;;;;;;;28.83;12.45;;;3.70;72.00;;;;;;5025583;28;20132;-77
2021/03/09 02:27:28;;;;;;;;;;;3.80;72.80;;;;;;5025806;28;20445;-77
2021/03/09 02:30:05;;;;;;;26.42;12.02;;;3.70;72.50;;;;;;5022556;28;19981;-76
2021/03/09 02:32:37;;;;;;;35.90;12.77;;;3.90;72.40;;;;;;5024346;28;20049;-77
2021/03/09 02:35:06;;;;;;;28.25;12.57;;;3.90;71.90;;;;;;5026336;28;20127;-76
2021/03/09 02:37:37;;;;;;;23.80;11.82;;;3.90;72.30;;;;;;5018267;28;20053;-77
2021/03/09 02:40:09;;;;;;;30.52;13.25;;;4.00;72.30;;;;;;5024628;28;20103;-78
2021/03/09 02:42:51;;;;;;;24.65;12.32;;;4.10;72.30;;;;;;5027968;28;20050;-76
2021/03/09 02:45:20;;;;;;;28.25;12.88;;;4.10;72.40;;;;;;5022987;28;20133;-78
2021/03/09 02:47:48;;;;;;;26.25;12.45;;;3.80;73.30;;;;;;5019641;28;20532;-76
2021/03/09 02:50:19;;;;;;;30.58;13.18;;;3.80;73.90;;;;;;5028361;28;20132;-77
2021/03/09 02:52:52;;;;;;;26.08;13.20;;;3.70;74.40;;;;;;5018378;28;20042;-75
2021/03/09 02:55:20;;;;;;;26.58;12.65;;;3.70;75.20;;;;;;5028480;28;20077;-77
2021/03/09 02:57:49;;;;;;;28.00;13.15;;;3.90;74.70;;;;;;5025090;28;20096;-77
2021/03/09 03:00:16;;;;;;;27.35;13.60;;;4.00;74.30;;;;;;5023339;28;20458;-75
2021/03/09 03:02:44;;;;;;;28.73;14.57;;;3.80;75.60;;;;;;5022383;28;20105;-77
2021/03/09 03:05:12;;;;;;;31.13;13.77;;;3.60;75.90;;;;;;5017833;28;20038;-77
2021/03/09 03:07:40;;;;;;;26.83;13.38;;;3.70;75.50;;;;;;5020450;28;20085;-77
2021/03/09 03:10:12;;;;;;;25.55;12.85;;;4.00;75.20;;;;;;5026054;28;20057;-76
2021/03/09 03:12:40;;;;;;;27.50;13.80;;;3.90;75.30;;;;;;5021837;28;20045;-77
2021/03/09 03:15:07;;;;;;;30.75;13.35;;;3.60;76.10;;;;;;5016990;28;20085;-79
2021/03/09 03:17:36;;;;;;;32.08;14.65;;;3.90;76.40;;;;;;5026515;28;20456;-77
2021/03/09 03:20:20;;;;;;;33.60;13.40;;;3.90;76.60;;;;;;5022449;28;20053;-78
2021/03/09 03:22:48;;;;;;;29.08;13.38;;;3.80;76.40;;;;;;5024719;28;20077;-79
2021/03/09 03:25:15;;;;;;;25.33;12.98;;;4.20;76.10;;;;;;5021510;28;20084;-77
2021/03/09 03:27:45;;;;;;;34.28;14.00;;;4.10;75.90;;;;;;5016847;28;20046;-79
2021/03/09 03:30:13;;;;;;;30.40;13.73;;;3.90;76.40;;;;;;5019542;28;20478;-79
2021/03/09 03:32:40;;;;;;;34.88;13.98;;;3.80;77.20;;;;;;5019899;28;20077;-79
2021/03/09 03:35:09;;;;;;;28.45;12.82;;;4.00;76.80;;;;;;5023895;28;20057;-78
2021/03/09 03:37:38;;;;;;;30.65;13.63;;;4.10;76.30;;;;;;5026258;28;20053;-79
2021/03/09 03:40:24;;;;;;;28.75;13.88;;;4.00;76.30;;;;;;5025870;28;20137;-77
2021/03/09 03:42:50;;;;;;;32.05;13.48;;;3.60;77.10;;;;;;5021730;28;20600;-78
2021/03/09 03:45:19;;;;;;;28.95;13.38;;;3.80;77.40;;;;;;5023143;28;20049;-79
2021/03/09 03:47:47;;;;;;;27.67;12.60;;;4.10;77.10;;;;;;5018844;28;20505;-78
2021/03/09 03:50:18;;;;;;;27.75;14.20;;;4.00;76.80;;;;;;5020806;28;20412;-78
2021/03/09 03:53:05;;;;;;;27.20;12.30;;;4.00;76.90;;;;;;5057535;28;20041;-79
2021/03/09 03:55:47;;;;;;;32.35;14.07;;;3.70;77.70;;;;;;5023955;28;20061;-78
2021/03/09 03:58:27;;;;;;;32.20;12.27;;;4.00;76.80;;;;;;5018253;28;20141;-77
2021/03/09 04:00:54;;;;;;;32.97;13.77;;;4.10;76.50;;;;;;5021693;28;20124;-76
2021/03/09 04:03:22;;;;;;;29.95;14.23;;;4.00;77.10;;;;;;5021323;28;20073;-78
2021/03/09 04:05:50;;;;;;;27.45;12.95;;;3.90;78.00;;;;;;5020146;28;20046;-77
2021/03/09 04:08:17;;;;;;;30.88;13.90;;;4.00;77.40;;;;;;5022387;28;20394;-78
2021/03/09 04:10:47;;;;;;;26.88;13.30;;;4.00;76.60;;;;;;5016953;28;20057;-78
2021/03/09 04:13:16;;;;;;;31.08;13.15;;;4.20;77.10;;;;;;5025076;28;20104;-78
2021/03/09 04:15:43;;;;;;;34.22;13.68;;;4.00;77.80;;;;;;5020326;28;20092;-78
2021/03/09 04:18:12;;;;;;;33.90;13.18;;;4.00;76.90;;;;;;5023727;28;20088;-77
2021/03/09 04:20:42;;;;;;;27.27;13.02;;;4.00;76.40;;;;;;5023408;28;20045;-77
2021/03/09 04:23:13;;;;;;;30.98;13.82;;;4.10;76.70;;;;;;5017242;28;20148;-78
2021/03/09 04:25:41;;;;;;;25.92;13.27;;;3.90;76.50;;;;;;5020671;28;20478;-79
2021/03/09 04:28:08;;;;;;;30.58;14.02;;;4.00;76.80;;;;;;5022780;28;20436;-79
2021/03/09 04:30:34;;;;;;;29.38;14.23;;;4.00;76.90;;;;;;5015310;28;20067;-78
2021/03/09 04:33:01;;;;;;;32.13;14.52;;;3.90;77.20;;;;;;5024072;28;20054;-79
2021/03/09 04:35:28;;;;;;;29.45;13.98;;;4.00;77.50;;;;;;5023879;28;20053;-81
2021/03/09 04:37:55;;;;;;;27.15;13.10;;;4.10;77.10;;;;;;5016008;28;20077;-79
2021/03/09 04:40:23;;;;;;;28.70;14.43;;;4.50;76.60;;;;;;5025384;28;20115;-79
2021/03/09 04:42:49;;;;;;;28.38;14.48;;;4.30;76.00;;;;;;5019246;28;20077;-80
2021/03/09 04:45:15;;;;;;;26.48;13.60;;;4.30;75.80;;;;;;5022322;28;20045;-78
2021/03/09 04:47:42;;;;;;;27.55;14.13;;;4.20;76.00;;;;;;5023994;28;20088;-77
2021/03/09 04:50:14;;;;;;;34.92;14.27;;;4.30;75.80;;;;;;5022532;28;20458;-77
2021/03/09 04:52:41;;;;;;;33.85;15.52;;;4.30;75.80;;;;;;5019290;28;20093;-77
2021/03/09 04:55:09;;;;;;;33.92;14.85;;;4.30;76.30;;;;;;5022046;28;20452;-78
2021/03/09 04:57:40;;;;;;;35.03;14.23;;;4.10;77.10;;;;;;5025869;28;20432;-77
2021/03/09 05:00:09;;;;;;;30.83;14.27;;;4.00;77.30;;;;;;5025054;28;20078;-77
2021/03/09 05:02:41;;;;;;;29.92;15.05;;;3.90;77.20;;;;;;5020292;28;20394;-78
2021/03/09 05:05:09;;;;;;;28.98;14.15;;;4.00;77.50;;;;;;5023358;28;20378;-78
2021/03/09 05:07:35;;;;;;;29.15;14.13;;;4.00;77.80;;;;;;5020992;28;20167;-78
2021/03/09 05:10:02;;;;;;;33.53;14.45;;;4.20;78.50;;;;;;5017588;28;20489;-79
2021/03/09 05:12:28;;;;;;;31.30;13.73;;;4.00;78.60;;;;;;5023175;28;20065;-82
2021/03/09 05:14:55;;;;;;;41.15;15.18;;;4.20;77.90;;;;;;5024206;28;20199;-80
2021/03/09 05:17:21;;;;;;;30.80;14.75;;;3.90;78.40;;;;;;5018096;28;20045;-77
2021/03/09 05:19:48;;;;;;;38.90;15.20;;;3.80;79.50;;;;;;5029108;28;20413;-79
2021/03/09 05:22:14;;;;;;;33.28;14.63;;;4.00;79.30;;;;;;5016093;28;20134;-79
2021/03/09 05:24:40;;;;;;;36.72;14.48;;;4.40;78.90;;;;;;5023130;28;20050;-78
2021/03/09 05:27:09;;;;;;;31.83;15.00;;;4.20;78.00;;;;;;5021976;28;20434;-78
2021/03/09 05:29:35;;;;;;;30.52;15.00;;;4.20;78.50;;;;;;5016306;28;20085;-77
2021/03/09 05:32:02;;;;;;;35.40;15.95;;;4.40;78.90;;;;;;5026768;28;20128;-77
2021/03/09 05:34:29;;;;;;;41.90;15.25;;;4.00;78.60;;;;;;5028205;28;20420;-81
2021/03/09 05:36:55;;;;;;;29.58;14.40;;;4.20;78.70;;;;;;5018530;28;20053;-78
2021/03/09 05:39:22;;;;;;;33.10;14.85;;;4.00;78.40;;;;;;5020687;28;20527;-77
2021/03/09 05:41:49;;;;;;;35.13;15.32;;;4.10;78.50;;;;;;5028140;28;20053;-79
2021/03/09 05:44:16;;;;;;;33.63;14.85;;;4.20;78.60;;;;;;5024924;28;20473;-78
2021/03/09 05:46:42;;;;;;;32.72;15.32;;;4.10;79.10;;;;;;5016464;28;20088;-79
2021/03/09 05:49:09;;;;;;;29.38;13.77;;;4.30;79.60;;;;;;5023654;28;20496;-79
2021/03/09 05:51:50;;;;;;;32.35;14.05;;;3.90;79.50;;;;;;5022803;28;20068;-79
2021/03/09 05:54:17;;;;;;;28.60;14.52;;;4.10;79.60;;;;;;5021111;28;20057;-77
2021/03/09 05:56:43;;;;;;;37.05;15.15;;;4.10;79.20;;;;;;5026398;28;20132;-79
2021/03/09 05:59:10;;;;;;;34.38;14.98;;;4.10;79.20;;;;;;5017701;28;20053;-77
2021/03/09 06:01:36;;;;;;;33.75;14.68;;;4.50;80.00;;;;;;5023329;28;20125;-78
2021/03/09 06:04:03;;;;;;;36.00;15.32;;;4.40;78.60;;;;;;5052330;28;20072;-79
2021/03/09 06:06:31;;;;;;;37.00;16.40;;;4.20;78.70;;;;;;5021279;28;20520;-80
2021/03/09 06:08:57;;;;;;;32.00;15.48;;;4.20;78.90;;;;;;5023013;28;20045;-76
2021/03/09 06:11:24;;;;;;;40.00;16.42;;;4.10;79.00;;;;;;5024796;28;20049;-78
2021/03/09 06:13:50;;;;;;;35.20;15.70;;;4.30;78.80;;;;;;5017660;28;20049;-77
2021/03/09 06:16:17;;;;;;;34.08;15.50;;;4.20;78.80;;;;;;5020047;28;20050;-79
2021/03/09 06:18:58;;;;;;;38.53;16.08;;;4.30;78.90;;;;;;5018502;28;20085;-77
2021/03/09 06:21:25;;;;;;;33.78;16.17;;;4.20;78.60;;;;;;5015208;28;20240;-78
2021/03/09 06:23:53;;;;;;;39.22;15.93;;;4.30;78.50;;;;;;5019982;28;20592;-79
2021/03/09 06:26:39;;;;;;;38.17;15.20;;;4.40;78.30;;;;;;5019616;28;20053;-79
2021/03/09 06:29:16;;;;;;;33.10;15.10;;;4.30;77.80;;;;;;5022799;28;20127;-79
2021/03/09 06:31:48;;;;;;;35.90;15.65;;;4.40;77.90;;;;;;5053099;28;20316;-80
2021/03/09 06:34:28;;;;;;;36.15;15.80;;;4.30;78.20;;;;;;5018889;28;20045;-78
2021/03/09 06:37:15;;;;;;;31.80;14.65;;;4.30;78.50;;;;;;5019751;28;20106;-78
2021/03/09 06:39:44;;;;;;;38.08;15.75;;;4.50;78.20;;;;;;5024634;28;20050;-79
2021/03/09 06:42:13;;;;;;;34.42;15.93;;;4.50;77.40;;;;;;5029855;28;20532;-79
2021/03/09 06:44:40;;;;;;;36.85;15.60;;;4.80;76.90;;;;;;5017901;28;20486;-78
2021/03/09 06:47:07;;;;;;;33.95;15.57;;;4.70;76.60;;;;;;5026117;28;20108;-77
2021/03/09 06:49:51;;;;;;;44.38;16.13;;;4.90;76.40;;;;;;5018673;28;20081;-79
2021/03/09 06:52:24;;;;;;;41.08;16.42;;;4.70;76.30;;;;;;5030748;28;20869;-79
2021/03/09 06:54:53;;;;;;;39.00;16.85;;;4.70;76.50;;;;;;5019736;28;20108;-79
2021/03/09 06:57:20;;;;;;;40.60;16.88;;;4.90;76.80;;;;;;5024197;28;20053;-79
2021/03/09 06:59:49;;;;;;;40.65;17.27;;;4.70;76.90;;;;;;5020889;28;20093;-78
2021/03/09 07:02:20;;;;;;;36.85;16.88;;;4.80;76.90;;;;;;5027292;28;20045;-78
2021/03/09 07:04:50;;;;;;;37.70;16.25;;;4.70;76.70;;;;;;5019455;28;20073;-78
2021/03/09 07:07:36;;;;;;;43.15;17.30;;;4.90;76.00;;;;;;5018859;28;20075;-77
2021/03/09 07:10:07;;;;;;;42.63;17.58;;;5.00;75.40;;;;;;5053332;28;20148;-78
2021/03/09 07:12:35;;;;;;;39.78;17.05;;;5.10;75.30;;;;;;5019904;28;20065;-77
2021/03/09 07:15:04;;;;;;;40.00;16.42;;;5.00;76.30;;;;;;5018682;28;20045;-79
2021/03/09 07:17:31;;;;;;;40.83;16.90;;;5.10;75.30;;;;;;5027354;28;20088;-79
2021/03/09 07:19:59;;;;;;;39.85;16.08;;;5.20;74.80;;;;;;5022054;28;20390;-77
2021/03/09 07:22:46;;;;;;;36.38;16.55;;;5.40;74.30;;;;;;5020011;28;20048;-80
2021/03/09 07:25:17;;;;;;;36.20;15.65;;;5.60;74.30;;;;;;5023945;28;20103;-80
2021/03/09 07:28:01;;;;;;;36.95;16.23;;;5.30;73.90;;;;;;5017539;28;20041;-78
2021/03/09 07:30:30;;;;;;;35.10;15.45;;;5.30;73.60;;;;;;5025091;28;20104;-79
2021/03/09 07:32:58;;;;;;;32.40;15.32;;;5.20;72.90;;;;;;5026670;28;20144;-78
2021/03/09 07:35:29;;;;;;;35.13;15.07;;;5.40;72.90;;;;;;5021746;28;20053;-80
2021/03/09 07:37:57;;;;;;;36.90;15.70;;;5.50;72.80;;;;;;5053042;28;20045;-78
2021/03/09 07:40:31;;;;;;;34.17;15.57;;;5.60;72.40;;;;;;5026639;28;20053;-78
2021/03/09 07:42:58;;;;;;;34.97;16.15;;;5.70;72.00;;;;;;5022709;28;20037;-81
2021/03/09 07:45:35;;;;;;;41.30;16.15;;;5.90;71.80;;;;;;5024487;28;20041;-79
2021/03/09 07:48:17;;;;;;;40.92;16.45;;;5.60;72.30;;;;;;5025653;28;20029;-78
2021/03/09 07:50:45;;;;;;;35.95;16.55;;;5.60;72.00;;;;;;5022928;28;20045;-78
2021/03/09 07:53:22;;;;;;;37.80;16.00;;;5.80;72.20;;;;;;5024168;28;20380;-79
2021/03/09 07:56:08;;;;;;;35.67;15.98;;;5.90;71.80;;;;;;5027407;28;20033;-78
2021/03/09 07:58:34;;;;;;;38.38;16.20;;;6.00;72.00;;;;;;5025266;28;20071;-80
2021/03/09 08:01:05;;;;;;;56.10;18.35;;;5.90;71.70;;;;;;5018620;28;20025;-79
2021/03/09 08:03:40;;;;;;;37.83;16.60;;;5.90;71.70;;;;;;5026256;28;20029;-80
2021/03/09 08:06:05;;;;;;;40.42;17.52;;;5.90;71.60;;;;;;5029979;28;20481;-79
2021/03/09 08:08:51;;;;;;;45.90;17.38;;;6.00;71.40;;;;;;5013743;28;20029;-80
2021/03/09 08:11:19;;;;;;;39.15;17.20;;;6.10;71.30;;;;;;5020851;28;20037;-79
2021/03/09 08:13:47;;;;;;;37.97;16.15;;;6.30;71.10;;;;;;5020534;28;20129;-81
2021/03/09 08:16:20;;;;;;;35.67;16.92;;;6.30;70.60;;;;;;5018751;28;20469;-82
2021/03/09 08:18:48;;;;;;;35.45;16.35;;;6.30;70.00;;;;;;5024964;28;20481;-81
2021/03/09 08:21:15;;;;;;;40.22;16.73;;;6.30;70.50;;;;;;5018214;28;20108;-78
2021/03/09 08:23:45;;;;;;;35.03;17.48;;;6.70;70.60;;;;;;5017749;28;20100;-79
2021/03/09 08:26:14;;;;;;;36.83;16.92;;;6.50;69.30;;;;;;5024852;28;20137;-79
2021/03/09 08:28:52;;;;;;;37.58;17.05;;;6.80;69.00;;;;;;5017623;28;20049;-79
2021/03/09 08:31:18;;;;;;;38.45;17.00;;;6.70;68.40;;;;;;5051151;28;20704;-79
2021/03/09 08:33:52;;;;;;;40.08;17.63;;;6.60;69.10;;;;;;5056683;28;20056;-80
2021/03/09 08:36:24;;;;;;;31.67;16.23;;;6.70;69.20;;;;;;5024352;28;20496;-78
2021/03/09 08:39:08;;;;;;;37.15;17.10;;;6.70;68.80;;;;;;5026624;28;20081;-78
2021/03/09 08:41:34;;;;;;;38.90;17.42;;;7.00;68.40;;;;;;5021635;28;20123;-79
2021/03/09 08:44:22;;;;;;;37.30;16.67;;;7.10;67.40;;;;;;5019009;28;20115;-78
2021/03/09 08:47:12;;;;;;;38.28;16.27;;;7.20;67.00;;;;;;5018542;28;20124;-79
2021/03/09 08:49:45;;;;;;;36.97;16.15;;;7.30;65.90;;;;;;5021450;28;20547;-78
2021/03/09 08:52:49;;;;;;;36.42;15.52;;;7.50;65.50;;;;;;5016876;28;20438;-77
2021/03/09 08:55:15;;;;;;;35.05;16.23;;;7.60;64.30;;;;;;5013643;28;20081;-80
2021/03/09 08:57:42;;;;;;;33.08;17.20;;;7.70;64.40;;;;;;5022449;28;20049;-80
2021/03/09 09:00:11;;;;;;;33.90;16.48;;;7.50;64.60;;;;;;5021747;28;20493;-77
2021/03/09 09:02:40;;;;;;;39.80;17.40;;;7.40;64.30;;;;;;5022216;28;20100;-78
2021/03/09 09:05:08;;;;;;;35.83;16.08;;;7.50;64.60;;;;;;5026562;28;20505;-80
2021/03/09 09:07:43;;;;;;;36.03;15.35;;;7.50;64.10;;;;;;5019987;28;20053;-80
2021/03/09 09:10:11;;;;;;;38.58;16.55;;;7.60;63.70;;;;;;5020075;28;20527;-78
2021/03/09 09:12:40;;;;;;;34.15;16.23;;;7.60;63.60;;;;;;5024816;28;20079;-78
2021/03/09 09:15:12;;;;;;;34.85;16.40;;;7.50;63.60;;;;;;5028817;28;20064;-77
2021/03/09 09:18:08;;;;;;;30.48;16.13;;;7.50;63.80;;;;;;5024575;28;20187;-77
2021/03/09 09:20:39;;;;;;;30.95;14.68;;;7.70;63.10;;;;;;5021810;28;20056;-80
2021/03/09 09:23:07;;;;;;;34.15;14.60;;;7.90;62.60;;;;;;5054042;28;20379;-78
2021/03/09 09:25:45;;;;;;;28.63;14.40;;;7.80;61.60;;;;;;5052035;28;20157;-78
2021/03/09 09:28:25;;;;;;;32.20;15.13;;;8.00;61.80;;;;;;5019741;28;20057;-78
2021/03/09 09:30:53;;;;;;;34.67;15.55;;;8.20;61.00;;;;;;5036760;28;20103;-78
2021/03/09 09:33:32;;;;;;;40.03;16.02;;;8.10;60.80;;;;;;5015971;28;20050;-78
2021/03/09 09:35:59;;;;;;;38.28;16.45;;;8.40;60.80;;;;;;5019227;28;20054;-79
2021/03/09 09:38:25;;;;;;;38.78;16.40;;;8.70;59.50;;;;;;5023023;28;20103;-79
2021/03/09 09:40:57;;;;;;;41.40;17.55;;;8.90;59.40;;;;;;5015472;28;20104;-78
2021/03/09 09:43:35;;;;;;;42.80;18.67;;;8.50;59.60;;;;;;5023649;28;20073;-79
2021/03/09 09:46:20;;;;;;;37.88;17.00;;;8.50;60.60;;;;;;5018753;28;20069;-76
2021/03/09 09:48:47;;;;;;;35.38;17.48;;;8.80;60.10;;;;;;5019740;28;20141;-74
2021/03/09 09:51:20;;;;;;;37.22;17.60;;;8.90;59.90;;;;;;5016354;28;20733;-78
2021/03/09 09:53:49;;;;;;;45.85;19.17;;;9.00;59.50;;;;;;5031852;28;20492;-77
2021/03/09 09:56:18;;;;;;;34.70;17.45;;;9.30;58.80;;;;;;5036270;28;20127;-77
2021/03/09 09:58:53;;;;;;;42.58;17.45;;;9.10;58.70;;;;;;5031023;28;20473;-73
2021/03/09 10:01:32;;;;;;;33.25;16.33;;;9.40;58.20;;;;;;5032080;28;20465;-73
2021/03/09 10:04:03;;;;;;;36.10;15.55;;;9.70;57.60;;;;;;5033154;28;20045;-73
2021/03/09 10:06:37;;;;;;;;;;;9.80;56.90;;;;;;5033006;28;20153;-71
2021/03/09 10:09:17;;;;;;;28.25;14.10;;;9.60;56.70;;;;;;5032703;28;20003;-71
2021/03/09 10:11:55;;;;;;;26.98;13.13;;;9.50;56.70;;;;;;5038583;28;20501;-73
2021/03/09 10:14:23;;;;;;;25.90;13.52;;;9.10;55.10;;;;;;5038363;28;20518;-73
2021/03/09 10:16:50;;;;;;;30.30;13.70;;;8.90;56.30;;;;;;5038077;28;20111;-73
2021/03/09 10:19:21;;;;;;;31.65;14.13;;;8.90;56.20;;;;;;5036714;28;20493;-72
2021/03/09 10:21:52;;;;;;;30.50;14.18;;;9.00;56.80;;;;;;5037515;28;20057;-75
2021/03/09 10:24:28;;;;;;;26.10;13.18;;;9.20;56.80;;;;;;5038754;28;20633;-72
2021/03/09 10:26:55;;;;;;;29.23;12.80;;;9.40;56.00;;;;;;5037541;28;20098;-71
2021/03/09 10:29:24;;;;;;;26.55;12.40;;;9.10;56.40;;;;;;5036572;28;20057;-76
2021/03/09 10:31:52;;;;;;;29.42;10.98;;;9.10;56.50;;;;;;5037043;28;20094;-74
2021/03/09 10:34:47;;;;;;;17.75;9.48;;;9.30;55.70;;;;;;5039472;28;20061;-74
2021/03/09 10:37:16;;;;;;;20.30;9.98;;;9.40;55.00;;;;;;5065081;28;20479;-74
2021/03/09 10:39:59;;;;;;;20.65;8.82;;;9.60;54.50;;;;;;5038355;28;20548;-80
2021/03/09 10:42:31;;;;;;;16.67;8.88;;;9.50;53.90;;;;;;5036313;28;20091;-75
2021/03/09 10:45:18;;;;;;;17.77;8.90;;;9.30;54.20;;;;;;5021385;28;20068;-77
2021/03/09 10:48:02;;;;;;;17.77;8.90;;;9.10;54.70;;;;;;5020627;28;20153;-77
2021/03/09 10:50:44;;;;;;;14.10;7.45;;;9.30;54.40;;;;;;5021199;28;20490;-71
2021/03/09 10:53:12;;;;;;;13.48;7.57;;;9.50;54.10;;;;;;5023026;28;20168;-72
2021/03/09 10:55:38;;;;;;;14.05;7.70;;;9.00;53.40;;;;;;5022964;28;20119;-75
2021/03/09 10:58:05;;;;;;;16.60;7.60;;;8.90;53.80;;;;;;5018641;28;20110;-72
2021/03/09 11:00:32;;;;;;;23.48;10.75;;;9.30;53.60;;;;;;5022200;28;20432;-73
2021/03/09 11:02:58;;;;;;;21.42;11.30;;;9.30;54.20;;;;;;5022978;28;20049;-74
2021/03/09 11:05:25;;;;;;;28.88;12.38;;;10.30;51.70;;;;;;5024130;28;20052;-72
2021/03/09 11:07:51;;;;;;;23.98;11.95;;;10.90;50.40;;;;;;5023649;28;20135;-73
2021/03/09 11:10:19;;;;;;;27.25;14.73;;;10.30;50.70;;;;;;5020218;28;20172;-71
2021/03/09 11:12:45;;;;;;;27.35;16.73;;;10.20;51.00;;;;;;5024901;28;20131;-72
2021/03/09 11:15:13;;;;;;;26.85;15.95;;;10.10;51.60;;;;;;5018372;28;20081;-73
2021/03/09 11:17:39;;;;;;;25.20;15.23;;;10.50;50.90;;;;;;5026412;28;20061;-72
2021/03/09 11:20:07;;;;;;;24.63;14.23;;;10.40;50.50;;;;;;5022131;28;20144;-74
2021/03/09 11:22:34;;;;;;;21.42;11.00;;;10.70;50.00;;;;;;5019733;28;20080;-74
2021/03/09 11:25:12;;;;;;;22.63;11.43;;;9.80;51.00;;;;;;5021896;28;20052;-72
2021/03/09 11:27:39;;;;;;;27.25;12.43;;;9.60;52.10;;;;;;5025928;28;20567;-73
2021/03/09 11:30:06;;;;;;;19.80;12.05;;;9.90;51.40;;;;;;5020159;28;20056;-72
2021/03/09 11:32:32;;;;;;;21.65;10.02;;;10.20;49.50;;;;;;5019699;28;20053;-73
2021/03/09 11:34:59;;;;;;;18.52;9.85;;;10.90;48.90;;;;;;5022819;28;20814;-71
2021/03/09 11:37:25;;;;;;;12.85;8.40;;;11.00;48.20;;;;;;5023057;28;20054;-73
2021/03/09 11:39:51;;;;;;;16.30;8.55;;;11.20;47.10;;;;;;5017527;28;20073;-74
2021/03/09 11:42:18;;;;;;;15.88;8.52;;;11.30;47.20;;;;;;5021292;28;20128;-74
2021/03/09 11:44:44;;;;;;;14.45;8.25;;;11.50;47.30;;;;;;5021120;28;20095;-73
2021/03/09 11:47:13;;;;;;;16.60;8.43;;;11.60;46.80;;;;;;5023975;28;20049;-73
2021/03/09 11:49:39;;;;;;;17.83;8.77;;;12.40;45.60;;;;;;5020323;28;20052;-74
2021/03/09 11:52:07;;;;;;;15.02;8.43;;;12.40;44.70;;;;;;5022907;28;20519;-73
2021/03/09 11:54:33;;;;;;;14.52;8.60;;;12.60;44.10;;;;;;5021403;28;20080;-72
2021/03/09 11:56:59;;;;;;;15.77;8.35;;;11.40;45.60;;;;;;5021167;28;20140;-73
2021/03/09 11:59:26;;;;;;;14.30;7.78;;;11.10;45.90;;;;;;5020195;28;20084;-73
2021/03/09 12:01:52;;;;;;;14.32;7.20;;;11.20;46.80;;;;;;5018736;28;20053;-71
2021/03/09 12:04:19;;;;;;;15.15;7.38;;;11.20;45.60;;;;;;5020095;28;20132;-70
2021/03/09 12:06:45;;;;;;;15.82;8.05;;;11.50;45.30;;;;;;5018943;28;20749;-71
2021/03/09 12:09:12;;;;;;;12.93;6.75;;;11.90;44.90;;;;;;5018917;28;20519;-71
2021/03/09 12:11:38;;;;;;;11.90;6.55;;;11.80;44.70;;;;;;5021544;28;20144;-71
2021/03/09 12:14:04;;;;;;;17.33;7.45;;;12.10;44.90;;;;;;5021650;28;20045;-71
2021/03/09 12:16:33;;;;;;;11.68;6.75;;;12.20;44.70;;;;;;5019144;28;20057;-72
2021/03/09 12:19:00;;;;;;;10.85;6.60;;;11.20;45.10;;;;;;5020848;28;20548;-70
2021/03/09 12:21:26;;;;;;;9.55;5.15;;;11.20;45.60;;;;;;5023338;28;20121;-69
2021/03/09 12:23:53;;;;;;;9.73;5.05;;;11.00;44.90;;;;;;5018278;28;20144;-69
2021/03/09 12:26:19;;;;;;;12.38;5.70;;;12.00;44.00;;;;;;5020796;28;20077;-70
2021/03/09 12:28:47;;;;;;;11.40;6.40;;;11.00;45.00;;;;;;5018992;28;20050;-70
2021/03/09 12:31:13;;;;;;;11.43;5.82;;;10.70;45.90;;;;;;5017902;28;20057;-69
2021/03/09 12:33:39;;;;;;;12.25;5.93;;;11.80;45.60;;;;;;5049307;28;20048;-70
2021/03/09 12:36:06;;;;;;;12.55;6.18;;;12.20;44.40;;;;;;5021508;28;20484;-71
2021/03/09 12:38:33;;;;;;;13.48;5.78;;;12.40;43.90;;;;;;5020944;28;20587;-73
2021/03/09 12:40:59;;;;;;;9.30;4.07;;;12.20;43.60;;;;;;5022449;28;20128;-72
2021/03/09 12:43:25;;;;;;;9.43;5.32;;;11.70;44.10;;;;;;5018776;28;20053;-72
2021/03/09 12:45:52;;;;;;;7.95;4.88;;;11.70;44.20;;;;;;5022276;28;20087;-71
2021/03/09 12:48:18;;;;;;;10.80;4.70;;;11.70;44.00;;;;;;5017206;28;20057;-71
2021/03/09 12:50:45;;;;;;;8.43;4.32;;;12.30;42.50;;;;;;5018512;28;20146;-70
2021/03/09 12:53:11;;;;;;;8.60;4.72;;;12.40;42.50;;;;;;5016304;28;20069;-69